sensor_id;sensor_type;location;lat;lon;timestamp;pressure;altitude;pressure_sealevel;temperature;humidity
77877;BME280;67251;50.844;7.978;2023-03-19T00:02:03;98478.53;;;4.54;94.88
77877;BME280;67251;50.844;7.978;2023-03-19T00:04:29;98480.88;;;4.57;94.99
77877;BME280;67251;50.844;7.978;2023-03-19T00:06:54;98476.56;;;4.56;94.79
77877;BME280;67251;50.844;7.978;2023-03-19T00:09:20;98469.59;;;4.55;94.91
77877;BME280;67251;50.844;7.978;2023-03-19T00:11:47;98480.19;;;4.55;94.90
77877;BME280;67251;50.844;7.978;2023-03-19T00:14:13;98466.94;;;4.55;94.74
77877;BME280;67251;50.844;7.978;2023-03-19T00:16:38;98470.25;;;4.57;94.80
77877;BME280;67251;50.844;7.978;2023-03-19T00:19:04;98465.97;;;4.56;95.04
77877;BME280;67251;50.844;7.978;2023-03-19T00:21:30;98469.25;;;4.58;95.14
77877;BME280;67251;50.844;7.978;2023-03-19T00:23:56;98474.69;;;4.65;95.23
77877;BME280;67251;50.844;7.978;2023-03-19T00:26:26;98474.53;;;4.67;95.27
77877;BME280;67251;50.844;7.978;2023-03-19T00:28:52;98475.16;;;4.69;95.12
77877;BME280;67251;50.844;7.978;2023-03-19T00:31:18;98473.19;;;4.71;95.34
77877;BME280;67251;50.844;7.978;2023-03-19T00:33:43;98465.88;;;4.73;95.23
77877;BME280;67251;50.844;7.978;2023-03-19T00:36:10;98471.00;;;4.74;95.26
77877;BME280;67251;50.844;7.978;2023-03-19T00:38:36;98475.47;;;4.74;94.97
77877;BME280;67251;50.844;7.978;2023-03-19T00:41:02;98466.72;;;4.73;94.97
77877;BME280;67251;50.844;7.978;2023-03-19T00:43:29;98476.16;;;4.76;95.03
77877;BME280;67251;50.844;7.978;2023-03-19T00:45:55;98472.19;;;4.72;94.92
77877;BME280;67251;50.844;7.978;2023-03-19T00:48:20;98474.00;;;4.71;95.05
77877;BME280;67251;50.844;7.978;2023-03-19T00:50:49;98470.22;;;4.66;94.94
77877;BME280;67251;50.844;7.978;2023-03-19T00:53:15;98475.56;;;4.57;94.88
77877;BME280;67251;50.844;7.978;2023-03-19T00:55:40;98471.94;;;4.50;94.75
77877;BME280;67251;50.844;7.978;2023-03-19T00:58:06;98479.91;;;4.42;95.05
77877;BME280;67251;50.844;7.978;2023-03-19T01:00:32;98476.00;;;4.30;94.92
77877;BME280;67251;50.844;7.978;2023-03-19T01:02:58;98467.06;;;4.23;95.03
77877;BME280;67251;50.844;7.978;2023-03-19T01:05:24;98460.44;;;4.19;95.16
77877;BME280;67251;50.844;7.978;2023-03-19T01:07:50;98466.78;;;4.09;95.17
77877;BME280;67251;50.844;7.978;2023-03-19T01:10:20;98467.28;;;4.05;95.30
77877;BME280;67251;50.844;7.978;2023-03-19T01:12:47;98467.94;;;4.07;95.42
77877;BME280;67251;50.844;7.978;2023-03-19T01:15:13;98460.63;;;4.17;95.70
77877;BME280;67251;50.844;7.978;2023-03-19T01:17:38;98464.41;;;4.23;95.44
77877;BME280;67251;50.844;7.978;2023-03-19T01:20:05;98468.06;;;4.22;95.29
77877;BME280;67251;50.844;7.978;2023-03-19T01:22:40;98470.72;;;4.22;95.30
77877;BME280;67251;50.844;7.978;2023-03-19T01:25:06;98476.31;;;4.27;95.17
77877;BME280;67251;50.844;7.978;2023-03-19T01:27:32;98473.34;;;4.30;95.29
77877;BME280;67251;50.844;7.978;2023-03-19T01:29:58;98478.13;;;4.34;95.23
77877;BME280;67251;50.844;7.978;2023-03-19T01:32:23;98474.97;;;4.39;95.04
77877;BME280;67251;50.844;7.978;2023-03-19T01:34:48;98475.28;;;4.44;95.07
77877;BME280;67251;50.844;7.978;2023-03-19T01:37:14;98478.56;;;4.46;94.70
77877;BME280;67251;50.844;7.978;2023-03-19T01:39:39;98478.56;;;4.46;94.66
77877;BME280;67251;50.844;7.978;2023-03-19T01:42:05;98473.28;;;4.46;94.63
77877;BME280;67251;50.844;7.978;2023-03-19T01:44:33;98479.25;;;4.48;94.51
77877;BME280;67251;50.844;7.978;2023-03-19T01:47:14;98472.75;;;4.51;94.93
77877;BME280;67251;50.844;7.978;2023-03-19T01:49:41;98478.22;;;4.57;94.75
77877;BME280;67251;50.844;7.978;2023-03-19T01:55:19;98479.97;;;4.73;94.95
77877;BME280;67251;50.844;7.978;2023-03-19T01:57:45;98475.16;;;4.77;94.71
77877;BME280;67251;50.844;7.978;2023-03-19T02:00:11;98482.09;;;4.78;94.31
77877;BME280;67251;50.844;7.978;2023-03-19T02:02:37;98472.31;;;4.78;94.25
77877;BME280;67251;50.844;7.978;2023-03-19T02:05:09;98479.44;;;4.78;94.27
77877;BME280;67251;50.844;7.978;2023-03-19T02:07:37;98474.97;;;4.78;94.43
77877;BME280;67251;50.844;7.978;2023-03-19T02:10:06;98477.78;;;4.77;94.30
77877;BME280;67251;50.844;7.978;2023-03-19T02:12:34;98468.00;;;4.77;94.20
77877;BME280;67251;50.844;7.978;2023-03-19T02:14:59;98473.81;;;4.81;94.41
77877;BME280;67251;50.844;7.978;2023-03-19T02:17:27;98472.28;;;4.86;94.40
77877;BME280;67251;50.844;7.978;2023-03-19T02:22:35;98470.41;;;4.95;94.01
77877;BME280;67251;50.844;7.978;2023-03-19T02:25:15;98474.38;;;4.99;93.94
77877;BME280;67251;50.844;7.978;2023-03-19T02:27:45;98464.75;;;4.98;93.62
77877;BME280;67251;50.844;7.978;2023-03-19T02:30:27;98473.38;;;5.00;93.59
77877;BME280;67251;50.844;7.978;2023-03-19T02:32:52;98477.47;;;5.03;93.45
77877;BME280;67251;50.844;7.978;2023-03-19T02:35:18;98473.00;;;5.03;93.17
77877;BME280;67251;50.844;7.978;2023-03-19T02:37:44;98474.00;;;5.02;92.85
77877;BME280;67251;50.844;7.978;2023-03-19T02:40:20;98466.56;;;4.98;93.24
77877;BME280;67251;50.844;7.978;2023-03-19T02:42:46;98475.72;;;4.95;93.19
77877;BME280;67251;50.844;7.978;2023-03-19T02:45:13;98464.94;;;4.97;93.43
77877;BME280;67251;50.844;7.978;2023-03-19T02:47:38;98459.81;;;4.95;93.49
77877;BME280;67251;50.844;7.978;2023-03-19T02:50:04;98460.44;;;4.97;93.49
77877;BME280;67251;50.844;7.978;2023-03-19T02:52:30;98461.09;;;4.99;93.39
77877;BME280;67251;50.844;7.978;2023-03-19T02:54:56;98459.44;;;4.98;93.52
77877;BME280;67251;50.844;7.978;2023-03-19T02:57:22;98461.22;;;5.06;93.25
77877;BME280;67251;50.844;7.978;2023-03-19T02:59:48;98469.81;;;5.08;93.10
77877;BME280;67251;50.844;7.978;2023-03-19T03:02:14;98464.50;;;5.08;93.04
77877;BME280;67251;50.844;7.978;2023-03-19T03:04:39;98467.34;;;5.06;93.27
77877;BME280;67251;50.844;7.978;2023-03-19T03:07:06;98469.38;;;5.04;93.11
77877;BME280;67251;50.844;7.978;2023-03-19T03:09:32;98476.00;;;5.00;93.02
77877;BME280;67251;50.844;7.978;2023-03-19T03:11:58;98472.06;;;4.96;93.09
77877;BME280;67251;50.844;7.978;2023-03-19T03:14:24;98475.88;;;4.94;93.07
77877;BME280;67251;50.844;7.978;2023-03-19T03:16:49;98479.72;;;4.91;93.07
77877;BME280;67251;50.844;7.978;2023-03-19T03:19:15;98477.41;;;4.88;93.11
77877;BME280;67251;50.844;7.978;2023-03-19T03:21:41;98484.72;;;4.86;93.19
77877;BME280;67251;50.844;7.978;2023-03-19T03:24:07;98485.72;;;4.85;93.07
77877;BME280;67251;50.844;7.978;2023-03-19T03:26:34;98490.00;;;4.86;93.13
77877;BME280;67251;50.844;7.978;2023-03-19T03:29:00;98489.00;;;4.87;93.09
77877;BME280;67251;50.844;7.978;2023-03-19T03:31:26;98489.81;;;4.87;93.09
77877;BME280;67251;50.844;7.978;2023-03-19T03:33:52;98497.59;;;4.89;93.05
77877;BME280;67251;50.844;7.978;2023-03-19T03:36:17;98494.94;;;4.89;92.97
77877;BME280;67251;50.844;7.978;2023-03-19T03:38:44;98500.25;;;4.89;93.00
77877;BME280;67251;50.844;7.978;2023-03-19T03:41:09;98496.94;;;4.87;92.87
77877;BME280;67251;50.844;7.978;2023-03-19T03:43:35;98507.91;;;4.84;93.01
77877;BME280;67251;50.844;7.978;2023-03-19T03:46:00;98510.41;;;4.77;93.17
77877;BME280;67251;50.844;7.978;2023-03-19T03:48:26;98500.97;;;4.75;93.17
77877;BME280;67251;50.844;7.978;2023-03-19T03:50:51;98500.34;;;4.73;93.26
77877;BME280;67251;50.844;7.978;2023-03-19T03:53:17;98504.81;;;4.72;93.24
77877;BME280;67251;50.844;7.978;2023-03-19T03:55:42;98497.50;;;4.74;93.89
77877;BME280;67251;50.844;7.978;2023-03-19T03:58:08;98492.06;;;4.76;93.60
77877;BME280;67251;50.844;7.978;2023-03-19T04:00:34;98496.16;;;4.78;93.93
77877;BME280;67251;50.844;7.978;2023-03-19T04:02:59;98500.66;;;4.78;93.77
77877;BME280;67251;50.844;7.978;2023-03-19T04:05:25;98503.63;;;4.75;93.62
77877;BME280;67251;50.844;7.978;2023-03-19T04:07:50;98494.84;;;4.74;93.69
77877;BME280;67251;50.844;7.978;2023-03-19T04:10:17;98495.00;;;4.81;94.28
77877;BME280;67251;50.844;7.978;2023-03-19T04:12:43;98494.63;;;4.84;94.32
77877;BME280;67251;50.844;7.978;2023-03-19T04:15:11;98490.34;;;4.83;94.23
77877;BME280;67251;50.844;7.978;2023-03-19T04:17:37;98493.81;;;4.83;94.24
77877;BME280;67251;50.844;7.978;2023-03-19T04:20:06;98496.34;;;4.77;94.24
77877;BME280;67251;50.844;7.978;2023-03-19T04:22:32;98496.66;;;4.82;94.33
77877;BME280;67251;50.844;7.978;2023-03-19T04:24:57;98495.00;;;4.81;94.29
77877;BME280;67251;50.844;7.978;2023-03-19T04:27:23;98487.69;;;4.83;94.44
77877;BME280;67251;50.844;7.978;2023-03-19T04:29:48;98495.00;;;4.81;94.25
77877;BME280;67251;50.844;7.978;2023-03-19T04:32:14;98496.84;;;4.80;94.37
77877;BME280;67251;50.844;7.978;2023-03-19T04:34:39;98493.38;;;4.80;94.24
77877;BME280;67251;50.844;7.978;2023-03-19T04:37:06;98480.94;;;4.80;94.48
77877;BME280;67251;50.844;7.978;2023-03-19T04:39:31;98488.88;;;4.80;94.55
77877;BME280;67251;50.844;7.978;2023-03-19T04:41:57;98496.66;;;4.82;94.33
77877;BME280;67251;50.844;7.978;2023-03-19T04:44:23;98496.66;;;4.82;94.18
77877;BME280;67251;50.844;7.978;2023-03-19T04:46:48;98490.53;;;4.81;94.06
77877;BME280;67251;50.844;7.978;2023-03-19T04:49:14;98498.28;;;4.83;94.22
77877;BME280;67251;50.844;7.978;2023-03-19T04:51:39;98503.59;;;4.83;94.22
77877;BME280;67251;50.844;7.978;2023-03-19T04:54:06;98500.31;;;4.81;93.79
77877;BME280;67251;50.844;7.978;2023-03-19T04:56:32;98498.00;;;4.78;94.28
77877;BME280;67251;50.844;7.978;2023-03-19T04:58:57;98500.66;;;4.78;93.82
77877;BME280;67251;50.844;7.978;2023-03-19T05:01:23;98506.94;;;4.77;94.04
77877;BME280;67251;50.844;7.978;2023-03-19T05:03:49;98511.44;;;4.76;93.83
77877;BME280;67251;50.844;7.978;2023-03-19T05:06:15;98511.56;;;4.75;93.81
77877;BME280;67251;50.844;7.978;2023-03-19T05:08:41;98506.28;;;4.75;93.91
77877;BME280;67251;50.844;7.978;2023-03-19T05:11:07;98512.25;;;4.77;93.97
77877;BME280;67251;50.844;7.978;2023-03-19T05:13:32;98515.53;;;4.79;93.96
77877;BME280;67251;50.844;7.978;2023-03-19T05:15:58;98514.38;;;4.81;93.90
77877;BME280;67251;50.844;7.978;2023-03-19T05:18:23;98513.56;;;4.81;93.78
77877;BME280;67251;50.844;7.978;2023-03-19T05:20:50;98518.88;;;4.81;93.59
77877;BME280;67251;50.844;7.978;2023-03-19T05:23:16;98519.50;;;4.83;93.79
77877;BME280;67251;50.844;7.978;2023-03-19T05:25:42;98523.16;;;4.82;93.64
77877;BME280;67251;50.844;7.978;2023-03-19T05:28:07;98521.50;;;4.81;93.64
77877;BME280;67251;50.844;7.978;2023-03-19T05:30:33;98520.84;;;4.79;93.56
77877;BME280;67251;50.844;7.978;2023-03-19T05:32:59;98520.31;;;4.83;93.98
77877;BME280;67251;50.844;7.978;2023-03-19T05:35:26;98524.47;;;4.86;94.07
77877;BME280;67251;50.844;7.978;2023-03-19T05:37:52;98536.72;;;4.87;93.89
77877;BME280;67251;50.844;7.978;2023-03-19T05:40:18;98532.25;;;4.87;93.59
77877;BME280;67251;50.844;7.978;2023-03-19T05:42:43;98538.56;;;4.86;93.54
77877;BME280;67251;50.844;7.978;2023-03-19T05:45:09;98543.03;;;4.86;93.64
77877;BME280;67251;50.844;7.978;2023-03-19T05:47:36;98542.03;;;4.87;93.38
77877;BME280;67251;50.844;7.978;2023-03-19T05:50:04;98539.03;;;4.90;93.83
77877;BME280;67251;50.844;7.978;2023-03-19T05:52:29;98538.66;;;4.93;93.58
77877;BME280;67251;50.844;7.978;2023-03-19T05:54:55;98543.97;;;4.93;93.24
77877;BME280;67251;50.844;7.978;2023-03-19T05:57:20;98548.31;;;4.94;93.18
77877;BME280;67251;50.844;7.978;2023-03-19T05:59:46;98545.66;;;4.94;93.29
77877;BME280;67251;50.844;7.978;2023-03-19T06:02:11;98549.13;;;4.95;93.36
77877;BME280;67251;50.844;7.978;2023-03-19T06:04:37;98549.13;;;4.95;93.25
77877;BME280;67251;50.844;7.978;2023-03-19T06:07:02;98551.59;;;4.96;93.47
77877;BME280;67251;50.844;7.978;2023-03-19T06:09:28;98547.13;;;4.97;93.14
77877;BME280;67251;50.844;7.978;2023-03-19T06:11:54;98548.44;;;5.01;93.41
77877;BME280;67251;50.844;7.978;2023-03-19T06:14:19;98559.53;;;5.04;93.12
77877;BME280;67251;50.844;7.978;2023-03-19T06:16:44;98550.56;;;5.05;93.26
77877;BME280;67251;50.844;7.978;2023-03-19T06:19:10;98557.50;;;5.06;92.84
77877;BME280;67251;50.844;7.978;2023-03-19T06:21:35;98555.53;;;5.08;92.89
77877;BME280;67251;50.844;7.978;2023-03-19T06:24:01;98558.00;;;5.10;92.70
77877;BME280;67251;50.844;7.978;2023-03-19T06:26:26;98557.81;;;5.11;92.64
77877;BME280;67251;50.844;7.978;2023-03-19T06:28:52;98567.91;;;5.16;92.51
77877;BME280;67251;50.844;7.978;2023-03-19T06:31:18;98567.75;;;5.18;92.64
77877;BME280;67251;50.844;7.978;2023-03-19T06:33:45;98569.41;;;5.19;92.38
77877;BME280;67251;50.844;7.978;2023-03-19T06:36:11;98565.75;;;5.20;92.44
77877;BME280;67251;50.844;7.978;2023-03-19T06:38:36;98563.91;;;5.20;92.48
77877;BME280;67251;50.844;7.978;2023-03-19T06:41:02;98571.53;;;5.23;92.68
77877;BME280;67251;50.844;7.978;2023-03-19T06:43:27;98572.66;;;5.29;92.46
77877;BME280;67251;50.844;7.978;2023-03-19T06:45:53;98569.13;;;5.36;92.58
77877;BME280;67251;50.844;7.978;2023-03-19T06:48:18;98578.03;;;5.44;92.21
77877;BME280;67251;50.844;7.978;2023-03-19T06:50:45;98573.84;;;5.49;92.18
77877;BME280;67251;50.844;7.978;2023-03-19T06:53:11;98577.47;;;5.56;92.15
77877;BME280;67251;50.844;7.978;2023-03-19T06:55:37;98576.75;;;5.62;92.04
77877;BME280;67251;50.844;7.978;2023-03-19T06:58:02;98587.03;;;5.66;91.64
77877;BME280;67251;50.844;7.978;2023-03-19T07:00:27;98579.53;;;5.69;91.71
77877;BME280;67251;50.844;7.978;2023-03-19T07:02:53;98576.88;;;5.69;91.73
77877;BME280;67251;50.844;7.978;2023-03-19T07:05:18;98582.19;;;5.69;92.12
77877;BME280;67251;50.844;7.978;2023-03-19T07:07:44;98580.81;;;5.73;91.99
77877;BME280;67251;50.844;7.978;2023-03-19T07:10:09;98581.13;;;5.78;92.02
77877;BME280;67251;50.844;7.978;2023-03-19T07:12:35;98582.25;;;5.84;91.84
77877;BME280;67251;50.844;7.978;2023-03-19T07:15:00;98587.38;;;5.94;91.55
77877;BME280;67251;50.844;7.978;2023-03-19T07:17:26;98589.41;;;6.06;91.66
77877;BME280;67251;50.844;7.978;2023-03-19T07:19:51;98593.88;;;6.29;90.85
77877;BME280;67251;50.844;7.978;2023-03-19T07:22:20;98581.69;;;6.49;90.09
77877;BME280;67251;50.844;7.978;2023-03-19T07:24:47;98589.81;;;6.71;89.38
77877;BME280;67251;50.844;7.978;2023-03-19T07:27:14;98588.91;;;6.78;89.46
77877;BME280;67251;50.844;7.978;2023-03-19T07:29:40;98587.06;;;6.94;88.76
77877;BME280;67251;50.844;7.978;2023-03-19T07:32:06;98587.31;;;7.13;88.32
77877;BME280;67251;50.844;7.978;2023-03-19T07:34:31;98589.78;;;7.30;87.47
77877;BME280;67251;50.844;7.978;2023-03-19T07:36:57;98587.97;;;7.52;86.65
77877;BME280;67251;50.844;7.978;2023-03-19T07:39:23;98593.06;;;7.68;86.14
77877;BME280;67251;50.844;7.978;2023-03-19T07:41:48;98586.63;;;7.77;86.16
77877;BME280;67251;50.844;7.978;2023-03-19T07:44:14;98595.03;;;7.81;86.11
77877;BME280;67251;50.844;7.978;2023-03-19T07:46:41;98585.47;;;7.86;86.06
77877;BME280;67251;50.844;7.978;2023-03-19T07:49:06;98595.94;;;7.88;86.01
77877;BME280;67251;50.844;7.978;2023-03-19T07:51:32;98598.81;;;7.86;86.09
77877;BME280;67251;50.844;7.978;2023-03-19T07:53:58;98599.16;;;7.83;86.43
77877;BME280;67251;50.844;7.978;2023-03-19T07:56:24;98595.94;;;7.88;86.34
77877;BME280;67251;50.844;7.978;2023-03-19T07:58:49;98593.28;;;7.88;86.30
77877;BME280;67251;50.844;7.978;2023-03-19T08:01:16;98611.81;;;7.96;86.08
77877;BME280;67251;50.844;7.978;2023-03-19T08:03:41;98613.31;;;8.05;85.83
77877;BME280;67251;50.844;7.978;2023-03-19T08:06:07;98606.44;;;8.17;85.62
77877;BME280;67251;50.844;7.978;2023-03-19T08:08:32;98611.47;;;8.27;85.04
77877;BME280;67251;50.844;7.978;2023-03-19T08:10:59;98612.03;;;8.23;85.26
77877;BME280;67251;50.844;7.978;2023-03-19T08:13:25;98613.06;;;8.22;85.43
77877;BME280;67251;50.844;7.978;2023-03-19T08:15:50;98619.53;;;8.34;85.20
77877;BME280;67251;50.844;7.978;2023-03-19T08:18:18;98611.69;;;8.47;84.71
77877;BME280;67251;50.844;7.978;2023-03-19T08:20:44;98620.53;;;8.54;84.33
77877;BME280;67251;50.844;7.978;2023-03-19T08:23:10;98623.44;;;8.59;84.26
77877;BME280;67251;50.844;7.978;2023-03-19T08:25:36;98623.91;;;8.69;83.90
77877;BME280;67251;50.844;7.978;2023-03-19T08:28:04;98625.28;;;8.87;83.48
77877;BME280;67251;50.844;7.978;2023-03-19T08:30:30;98627.00;;;9.01;82.58
77877;BME280;67251;50.844;7.978;2023-03-19T08:32:56;98621.53;;;9.09;82.65
77877;BME280;67251;50.844;7.978;2023-03-19T08:35:22;98622.63;;;9.28;82.00
77877;BME280;67251;50.844;7.978;2023-03-19T08:37:48;98621.34;;;9.65;81.14
77877;BME280;67251;50.844;7.978;2023-03-19T08:40:15;98622.28;;;10.19;79.68
77877;BME280;67251;50.844;7.978;2023-03-19T08:42:40;98619.22;;;10.82;78.00
77877;BME280;67251;50.844;7.978;2023-03-19T08:45:11;98625.38;;;10.89;77.69
77877;BME280;67251;50.844;7.978;2023-03-19T08:47:38;98618.41;;;10.88;77.90
77877;BME280;67251;50.844;7.978;2023-03-19T08:50:06;98623.66;;;11.14;76.98
77877;BME280;67251;50.844;7.978;2023-03-19T08:52:32;98618.00;;;11.49;76.19
77877;BME280;67251;50.844;7.978;2023-03-19T08:54:58;98619.09;;;11.86;74.96
77877;BME280;67251;50.844;7.978;2023-03-19T08:57:23;98626.47;;;12.22;73.80
77877;BME280;67251;50.844;7.978;2023-03-19T08:59:48;98622.69;;;12.62;73.67
77877;BME280;67251;50.844;7.978;2023-03-19T09:02:14;98625.69;;;13.15;71.60
77877;BME280;67251;50.844;7.978;2023-03-19T09:04:43;98621.81;;;13.48;69.48
77877;BME280;67251;50.844;7.978;2023-03-19T09:07:09;98625.22;;;13.73;68.48
77877;BME280;67251;50.844;7.978;2023-03-19T09:09:40;98624.19;;;13.74;68.39
77877;BME280;67251;50.844;7.978;2023-03-19T09:12:07;98625.00;;;13.75;68.34
77877;BME280;67251;50.844;7.978;2023-03-19T09:14:33;98630.47;;;13.68;68.92
77877;BME280;67251;50.844;7.978;2023-03-19T09:16:59;98628.69;;;13.44;69.52
77877;BME280;67251;50.844;7.978;2023-03-19T09:19:24;98638.91;;;13.35;69.86
77877;BME280;67251;50.844;7.978;2023-03-19T09:21:50;98633.16;;;13.50;68.83
77877;BME280;67251;50.844;7.978;2023-03-19T09:24:16;98631.09;;;13.82;69.30
77877;BME280;67251;50.844;7.978;2023-03-19T09:26:42;98629.28;;;14.24;68.21
77877;BME280;67251;50.844;7.978;2023-03-19T09:29:07;98629.53;;;14.35;65.93
77877;BME280;67251;50.844;7.978;2023-03-19T09:31:33;98631.88;;;14.01;66.72
77877;BME280;67251;50.844;7.978;2023-03-19T09:33:58;98642.25;;;13.67;68.21
77877;BME280;67251;50.844;7.978;2023-03-19T09:36:24;98646.16;;;13.35;68.27
77877;BME280;67251;50.844;7.978;2023-03-19T09:38:50;98655.66;;;12.94;68.09
77877;BME280;67251;50.844;7.978;2023-03-19T09:44:12;98649.53;;;12.87;69.49
77877;BME280;67251;50.844;7.978;2023-03-19T09:46:42;98660.44;;;13.10;67.21
77877;BME280;67251;50.844;7.978;2023-03-19T09:51:53;98656.78;;;13.04;69.06
77877;BME280;67251;50.844;7.978;2023-03-19T09:54:28;98663.97;;;13.11;69.93
77877;BME280;67251;50.844;7.978;2023-03-19T09:56:54;98663.00;;;12.80;69.85
77877;BME280;67251;50.844;7.978;2023-03-19T09:59:24;98669.28;;;12.42;71.54
77877;BME280;67251;50.844;7.978;2023-03-19T10:07:42;98682.63;;;11.01;76.96
77877;BME280;67251;50.844;7.978;2023-03-19T10:10:23;98677.50;;;10.73;77.33
77877;BME280;67251;50.844;7.978;2023-03-19T10:15:49;98688.19;;;10.40;78.46
77877;BME280;67251;50.844;7.978;2023-03-19T10:18:30;98692.06;;;10.31;79.31
77877;BME280;67251;50.844;7.978;2023-03-19T10:21:04;98693.03;;;10.23;79.49
77877;BME280;67251;50.844;7.978;2023-03-19T10:23:49;98692.06;;;10.31;79.16
77877;BME280;67251;50.844;7.978;2023-03-19T10:26:20;98690.47;;;10.49;79.59
77877;BME280;67251;50.844;7.978;2023-03-19T10:29:18;98695.38;;;10.72;78.60
77877;BME280;67251;50.844;7.978;2023-03-19T10:34:29;98690.66;;;11.01;77.26
77877;BME280;67251;50.844;7.978;2023-03-19T10:37:01;98689.41;;;11.04;77.26
77877;BME280;67251;50.844;7.978;2023-03-19T10:39:29;98696.16;;;11.19;77.35
77877;BME280;67251;50.844;7.978;2023-03-19T10:45:28;98689.59;;;11.93;74.28
77877;BME280;67251;50.844;7.978;2023-03-19T10:47:55;98685.50;;;12.22;72.35
77877;BME280;67251;50.844;7.978;2023-03-19T10:50:27;98690.47;;;12.50;72.85
77877;BME280;67251;50.844;7.978;2023-03-19T10:53:05;98698.50;;;12.57;72.15
77877;BME280;67251;50.844;7.978;2023-03-19T10:55:33;98690.34;;;12.70;71.85
77877;BME280;67251;50.844;7.978;2023-03-19T10:58:18;98691.59;;;12.68;71.94
77877;BME280;67251;50.844;7.978;2023-03-19T11:00:46;98696.41;;;12.59;70.95
77877;BME280;67251;50.844;7.978;2023-03-19T11:08:29;98692.56;;;12.98;70.72
77877;BME280;67251;50.844;7.978;2023-03-19T11:10:59;98687.53;;;13.34;69.80
77877;BME280;67251;50.844;7.978;2023-03-19T11:13:25;98690.75;;;13.61;68.91
77877;BME280;67251;50.844;7.978;2023-03-19T11:15:52;98697.38;;;13.40;67.52
77877;BME280;67251;50.844;7.978;2023-03-19T11:18:27;98685.91;;;13.69;67.62
77877;BME280;67251;50.844;7.978;2023-03-19T11:20:58;98687.00;;;13.80;67.51
77877;BME280;67251;50.844;7.978;2023-03-19T11:23:28;98681.09;;;13.71;68.06
77877;BME280;67251;50.844;7.978;2023-03-19T11:25:58;98687.44;;;13.59;67.95
77877;BME280;67251;50.844;7.978;2023-03-19T11:28:28;98677.97;;;13.38;69.02
77877;BME280;67251;50.844;7.978;2023-03-19T11:36:13;98683.16;;;13.14;68.60
77877;BME280;67251;50.844;7.978;2023-03-19T11:47:15;98666.81;;;14.19;64.73
77877;BME280;67251;50.844;7.978;2023-03-19T11:52:31;98684.84;;;13.52;63.90
77877;BME280;67251;50.844;7.978;2023-03-19T11:55:20;98694.94;;;12.88;68.14
77877;BME280;67251;50.844;7.978;2023-03-19T11:58:23;98692.31;;;12.57;65.83
77877;BME280;67251;50.844;7.978;2023-03-19T12:00:54;98685.75;;;12.77;67.47
77877;BME280;67251;50.844;7.978;2023-03-19T12:06:39;98688.13;;;13.11;66.35
77877;BME280;67251;50.844;7.978;2023-03-19T12:12:27;98673.13;;;14.13;66.11
77877;BME280;67251;50.844;7.978;2023-03-19T12:15:06;98684.69;;;13.65;65.26
77877;BME280;67251;50.844;7.978;2023-03-19T12:17:43;98679.47;;;13.52;63.10
77877;BME280;67251;50.844;7.978;2023-03-19T12:23:21;98674.97;;;13.82;64.02
77877;BME280;67251;50.844;7.978;2023-03-19T12:26:06;98673.34;;;13.63;63.60
77877;BME280;67251;50.844;7.978;2023-03-19T12:28:53;98677.09;;;13.19;63.31
77877;BME280;67251;50.844;7.978;2023-03-19T12:31:32;98672.47;;;12.83;63.78
77877;BME280;67251;50.844;7.978;2023-03-19T12:34:47;98670.19;;;12.86;63.16
77877;BME280;67251;50.844;7.978;2023-03-19T12:37:03;98673.22;;;13.15;64.24
77877;BME280;67251;50.844;7.978;2023-03-19T12:39:34;98673.81;;;13.17;64.00
77877;BME280;67251;50.844;7.978;2023-03-19T12:42:03;98668.25;;;12.68;64.97
77877;BME280;67251;50.844;7.978;2023-03-19T12:44:35;98671.53;;;12.95;64.69
77877;BME280;67251;50.844;7.978;2023-03-19T12:47:12;98674.06;;;12.65;64.43
77877;BME280;67251;50.844;7.978;2023-03-19T12:50:05;98667.53;;;12.54;66.21
77877;BME280;67251;50.844;7.978;2023-03-19T12:52:36;98669.56;;;12.59;66.20
77877;BME280;67251;50.844;7.978;2023-03-19T12:57:43;98672.41;;;13.14;64.47
77877;BME280;67251;50.844;7.978;2023-03-19T13:00:23;98666.19;;;13.57;62.16
77877;BME280;67251;50.844;7.978;2023-03-19T13:06:09;98670.59;;;13.33;63.82
77877;BME280;67251;50.844;7.978;2023-03-19T13:16:56;98670.84;;;12.25;66.41
77877;BME280;67251;50.844;7.978;2023-03-19T13:19:39;98677.84;;;12.58;66.77
77877;BME280;67251;50.844;7.978;2023-03-19T13:22:13;98680.22;;;12.72;64.58
77877;BME280;67251;50.844;7.978;2023-03-19T13:24:41;98683.88;;;12.21;65.85
77877;BME280;67251;50.844;7.978;2023-03-19T13:27:22;98670.50;;;12.15;67.61
77877;BME280;67251;50.844;7.978;2023-03-19T13:30:06;98680.44;;;12.39;66.64
77877;BME280;67251;50.844;7.978;2023-03-19T13:33:03;98667.44;;;12.68;66.12
77877;BME280;67251;50.844;7.978;2023-03-19T13:35:42;98661.25;;;12.67;65.18
77877;BME280;67251;50.844;7.978;2023-03-19T13:38:17;98664.00;;;13.29;64.60
77877;BME280;67251;50.844;7.978;2023-03-19T13:40:49;98654.03;;;14.03;62.41
77877;BME280;67251;50.844;7.978;2023-03-19T13:45:50;98646.31;;;13.58;60.61
77877;BME280;67251;50.844;7.978;2023-03-19T13:56:17;98657.00;;;13.46;58.33
77877;BME280;67251;50.844;7.978;2023-03-19T14:03:52;98648.25;;;13.99;59.90
77877;BME280;67251;50.844;7.978;2023-03-19T14:06:44;98647.84;;;13.84;59.17
77877;BME280;67251;50.844;7.978;2023-03-19T14:09:40;98650.19;;;13.62;58.68
77877;BME280;67251;50.844;7.978;2023-03-19T14:17:22;98651.09;;;13.56;60.08
77877;BME280;67251;50.844;7.978;2023-03-19T14:19:50;98647.06;;;13.65;59.72
77877;BME280;67251;50.844;7.978;2023-03-19T14:22:31;98641.59;;;13.53;59.15
77877;BME280;67251;50.844;7.978;2023-03-19T14:25:17;98637.16;;;13.77;59.73
77877;BME280;67251;50.844;7.978;2023-03-19T14:27:48;98631.94;;;14.13;58.76
77877;BME280;67251;50.844;7.978;2023-03-19T14:30:26;98628.06;;;14.09;57.91
77877;BME280;67251;50.844;7.978;2023-03-19T14:32:55;98628.25;;;13.95;56.62
77877;BME280;67251;50.844;7.978;2023-03-19T14:35:24;98630.38;;;14.05;58.14
77877;BME280;67251;50.844;7.978;2023-03-19T14:37:51;98627.28;;;14.50;57.47
77877;BME280;67251;50.844;7.978;2023-03-19T14:40:21;98620.00;;;14.62;56.35
77877;BME280;67251;50.844;7.978;2023-03-19T14:43:27;98626.00;;;14.88;56.72
77877;BME280;67251;50.844;7.978;2023-03-19T14:45:58;98619.19;;;15.20;56.52
77877;BME280;67251;50.844;7.978;2023-03-19T14:51:02;98621.75;;;15.39;54.50